Aeroporto :
LOGIN :

Iscrizione | Disclaimer

   EN    FR    IT 

 










Sommario :    VFR   VFR Marginale   IFR   IFR Intensivo   IFR Molto Intensivo
Visibilità : 
Base nubi : 
>= 8 km
>= 3000ft
5 / 8 km
1000 / 3000 ft
1500m / 5 km
500 / 1000 ft
800 / 1500m
200 / 500 ft
< 800m
< 200 ft
Simboli :   Temporali  Nebbia  Neve Forte  Precipitazioni Forti  Vento > 20 kt
SIGMETs :   Varie  Temporali  Ghiacco  Turbolenza  Onda orograficha  Ceneri Vulcaniche






- Altitudine del aeroporto : 1043 ft
- Codice IATA : SLD


LZSL - Sliac

ULTIMO METAR :
  • 191200Z VRB02KT CAVOK 21/05 Q1023

METARs OBSOLETI :
  • 191130Z VRB02KT CAVOK 20/05 Q1024
  • 191100Z VRB02KT CAVOK 19/06 Q1024
  • 191030Z VRB01KT CAVOK 18/07 Q1024
  • 191000Z VRB01KT CAVOK 17/08 Q1025
  • 190930Z VRB01KT CAVOK 16/08 Q1025
  • 190921Z VRB01KT CAVOK 16/08 Q1025

TAF TAF LZSL
Valido dal 19 a 12 ore il 19 a 21 ore UTC


191100Z 1912/1921 17004KT CAVOK
BECMG 1915/1917 VRB02KT



MetMap, La meteo Aeronautica in un colpo d'occhio ! - Copyright ORBIFLY Dicembre 2007 - Disclaimer

ORBIFLY MET'MAP TEAM :

Programmazione e sviluppo : Alexandra Zaïnal
Concezione : Baudouin d'Aumeries
Aiuto per la programmazione : Marc-Olivier Méhu
Supporto tecnico e logistico : Manuel Goepfert
Aiuto per la traduzione : Arnaldo La Scala

Contatto : metmap@orbifly.com




FONTI E CREDITI :

   NOAA